createdAt,value
2019-04-10T00:01:55.097Z,101458.06
2019-04-10T00:04:23.048Z,101463.19
2019-04-10T00:06:50.132Z,101464.83
2019-04-10T00:09:17.261Z,101459.31
2019-04-10T00:11:45.075Z,101469.52
2019-04-10T00:14:12.387Z,101467.15
2019-04-10T00:16:40.416Z,101468.11
2019-04-10T00:19:08.521Z,101468.56
2019-04-10T00:21:35.613Z,101473.97
2019-04-10T00:24:03.803Z,101481.80
2019-04-10T00:26:31.949Z,101483.22
2019-04-10T00:29:00.235Z,101482.27
2019-04-10T00:31:27.588Z,101484.73
2019-04-10T00:33:54.749Z,101477.58
2019-04-10T00:36:21.662Z,101483.16
2019-04-10T00:38:48.717Z,101482.48
2019-04-10T00:41:16.357Z,101476.62
2019-04-10T00:43:43.476Z,101478.59
2019-04-10T00:46:10.993Z,101482.70
2019-04-10T00:48:37.748Z,101478.53
2019-04-10T00:51:04.773Z,101484.45
2019-04-10T00:53:31.615Z,101489.01
2019-04-10T00:55:59.814Z,101484.17
2019-04-10T00:58:27.991Z,101485.79
2019-04-10T01:00:55.161Z,101488.39
2019-04-10T01:03:42.031Z,101487.98
2019-04-10T01:06:08.926Z,101491.35
2019-04-10T01:08:35.726Z,101490.52
2019-04-10T01:11:03.086Z,101488.89
2019-04-10T01:13:30.020Z,101490.28
2019-04-10T01:15:57.066Z,101490.91
2019-04-10T01:18:25.139Z,101494.32
2019-04-10T01:20:52.187Z,101490.90
2019-04-10T01:23:19.031Z,101492.92
2019-04-10T01:25:46.487Z,101492.13
2019-04-10T01:28:14.217Z,101492.77
2019-04-10T01:30:42.312Z,101494.36
2019-04-10T01:33:09.249Z,101498.80
2019-04-10T01:35:36.251Z,101494.16
2019-04-10T01:38:05.840Z,101489.41
2019-04-10T01:40:32.035Z,101496.12
2019-04-10T01:43:06.618Z,101491.58
2019-04-10T01:45:27.691Z,101496.80
2019-04-10T01:47:55.323Z,101492.55
2019-04-10T01:50:22.399Z,101491.12
2019-04-10T01:52:49.547Z,101485.45
2019-04-10T01:55:24.207Z,101486.64
2019-04-10T01:57:46.341Z,101486.80
2019-04-10T02:00:15.309Z,101479.77
2019-04-10T02:02:47.697Z,101488.91
2019-04-10T02:05:14.736Z,101485.20
2019-04-10T02:07:42.391Z,101483.11
2019-04-10T02:10:10.068Z,101486.48
2019-04-10T02:12:37.151Z,101478.44
2019-04-10T02:15:04.916Z,101482.31
2019-04-10T02:17:32.632Z,101481.09
2019-04-10T02:20:00.720Z,101485.05
2019-04-10T02:22:28.653Z,101476.04
2019-04-10T02:24:55.824Z,101471.20
2019-04-10T02:27:22.930Z,101470.19
2019-04-10T02:29:50.250Z,101466.55
2019-04-10T02:32:18.991Z,101463.72
2019-04-10T02:34:46.903Z,101466.48
2019-04-10T02:37:15.350Z,101470.70
2019-04-10T02:39:47.008Z,101470.02
2019-04-10T02:42:11.402Z,101471.66
2019-04-10T02:44:38.364Z,101470.87
2019-04-10T02:47:06.426Z,101464.19
2019-04-10T02:49:33.474Z,101468.34
2019-04-10T02:52:00.778Z,101468.16
2019-04-10T02:54:28.949Z,101461.53
2019-04-10T02:56:56.875Z,101458.20
2019-04-10T02:59:23.931Z,101463.51
2019-04-10T03:01:52.377Z,101461.54
2019-04-10T03:04:20.631Z,101461.27
2019-04-10T03:06:47.927Z,101468.45
2019-04-10T03:09:32.328Z,101466.20
2019-04-10T03:11:44.434Z,101467.00
2019-04-10T03:14:12.710Z,101462.77
2019-04-10T03:16:39.924Z,101472.39
2019-04-10T03:19:07.470Z,101468.29
2019-04-10T03:21:35.403Z,101476.68
2019-04-10T03:24:02.341Z,101475.05
2019-04-10T03:26:29.890Z,101479.05
2019-04-10T03:28:57.699Z,101479.27
2019-04-10T03:31:25.435Z,101478.25
2019-04-10T03:33:55.904Z,101470.02
2019-04-10T03:36:23.216Z,101470.14
2019-04-10T03:38:59.611Z,101474.45
2019-04-10T03:41:19.774Z,101470.29
2019-04-10T03:43:46.907Z,101474.30
2019-04-10T03:46:14.092Z,101470.68
2019-04-10T03:48:41.268Z,101470.16
2019-04-10T03:51:08.242Z,101471.80
2019-04-10T03:53:35.322Z,101469.39
2019-04-10T03:56:02.289Z,101474.11
2019-04-10T03:58:29.515Z,101471.10
2019-04-10T04:00:56.147Z,101470.49
2019-04-10T04:03:23.159Z,101474.65
2019-04-10T04:05:51.144Z,101479.28
2019-04-10T04:08:18.123Z,101476.75
2019-04-10T04:10:45.113Z,101481.17
2019-04-10T04:13:12.255Z,101474.84
2019-04-10T04:15:39.533Z,101481.27
2019-04-10T04:18:06.325Z,101482.81
2019-04-10T04:20:33.400Z,101479.88
2019-04-10T04:23:01.267Z,101479.27
2019-04-10T04:25:28.338Z,101483.42
2019-04-10T04:27:55.513Z,101493.72
2019-04-10T04:30:22.492Z,101492.13
2019-04-10T04:32:50.438Z,101497.76
2019-04-10T04:35:17.658Z,101495.28
2019-04-10T04:37:44.643Z,101495.89
2019-04-10T04:40:11.526Z,101496.49
2019-04-10T04:42:38.675Z,101499.58
2019-04-10T04:45:05.932Z,101509.12
2019-04-10T04:47:33.333Z,101500.80
2019-04-10T04:50:01.357Z,101506.64
2019-04-10T04:52:30.957Z,101503.70
2019-04-10T04:54:57.809Z,101506.91
2019-04-10T04:57:24.962Z,101508.66
2019-04-10T04:59:52.615Z,101510.91
2019-04-10T05:02:19.948Z,101511.34
2019-04-10T05:04:46.958Z,101512.75
2019-04-10T05:07:14.831Z,101514.05
2019-04-10T05:09:42.221Z,101512.09
2019-04-10T05:12:09.414Z,101518.44
2019-04-10T05:14:36.278Z,101519.38
2019-04-10T05:17:03.911Z,101525.93
2019-04-10T05:19:30.850Z,101520.69
2019-04-10T05:21:57.693Z,101522.50
2019-04-10T05:24:24.325Z,101526.13
2019-04-10T05:26:51.249Z,101529.67
2019-04-10T05:29:18.231Z,101541.21
2019-04-10T05:31:45.273Z,101533.62
2019-04-10T05:34:12.257Z,101537.17
2019-04-10T05:36:39.977Z,101538.93
2019-04-10T05:39:06.931Z,101541.13
2019-04-10T05:41:33.649Z,101542.36
2019-04-10T05:44:00.718Z,101541.81
2019-04-10T05:46:28.323Z,101549.05
2019-04-10T05:48:55.925Z,101545.51
2019-04-10T05:51:23.389Z,101547.66
2019-04-10T05:53:52.658Z,101546.16
2019-04-10T05:56:20.577Z,101543.48
2019-04-10T05:58:48.988Z,101540.80
2019-04-10T06:01:16.310Z,101541.28
2019-04-10T06:03:43.158Z,101543.73
2019-04-10T06:06:10.391Z,101543.98
2019-04-10T06:08:37.595Z,101545.47
2019-04-10T06:11:06.684Z,101542.69
2019-04-10T06:13:34.759Z,101541.13
2019-04-10T06:16:02.104Z,101540.44
2019-04-10T06:18:29.305Z,101548.53
2019-04-10T06:20:57.346Z,101545.17
2019-04-10T06:23:25.329Z,101545.83
2019-04-10T06:25:52.649Z,101545.83
2019-04-10T06:28:19.637Z,101551.63
2019-04-10T06:30:46.472Z,101548.88
2019-04-10T06:33:13.520Z,101556.92
2019-04-10T06:35:40.574Z,101556.77
2019-04-10T06:38:07.661Z,101562.36
2019-04-10T06:40:35.572Z,101558.67
2019-04-10T06:43:02.701Z,101552.78
2019-04-10T06:45:29.826Z,101560.96
2019-04-10T06:47:57.114Z,101551.77
2019-04-10T06:50:24.051Z,101557.41
2019-04-10T06:52:51.352Z,101563.45
2019-04-10T06:55:18.582Z,101561.91
2019-04-10T06:57:51.791Z,101563.34
2019-04-10T07:00:18.060Z,101567.53
2019-04-10T07:02:46.289Z,101563.17
2019-04-10T07:05:14.983Z,101571.02
2019-04-10T07:07:50.860Z,101568.25
2019-04-10T07:10:23.592Z,101568.89
2019-04-10T07:12:39.887Z,101567.97
2019-04-10T07:15:08.389Z,101571.91
2019-04-10T07:17:40.351Z,101570.55
2019-04-10T07:20:05.356Z,101570.73
2019-04-10T07:22:33.101Z,101570.81
2019-04-10T07:25:00.534Z,101568.22
2019-04-10T07:27:27.787Z,101574.19
2019-04-10T07:29:58.073Z,101579.78
2019-04-10T07:32:24.334Z,101570.41
2019-04-10T07:34:51.357Z,101575.47
2019-04-10T07:37:21.613Z,101576.70
2019-04-10T07:39:47.319Z,101572.66
2019-04-10T07:42:25.898Z,101580.33
2019-04-10T07:44:43.900Z,101582.03
2019-04-10T07:47:11.123Z,101584.28
2019-04-10T07:49:39.617Z,101586.30
2019-04-10T07:52:06.920Z,101591.09
2019-04-10T07:54:34.951Z,101593.09
2019-04-10T07:57:02.116Z,101595.06
2019-04-10T07:59:29.332Z,101596.28
2019-04-10T08:01:56.482Z,101595.21
2019-04-10T08:04:26.837Z,101598.39
2019-04-10T08:06:54.388Z,101596.59
2019-04-10T08:09:21.446Z,101599.23
2019-04-10T08:11:48.926Z,101603.41
2019-04-10T08:14:16.799Z,101602.69
2019-04-10T08:16:44.114Z,101605.18
2019-04-10T08:19:10.850Z,101606.08
2019-04-10T08:21:38.078Z,101611.23
2019-04-10T08:24:05.213Z,101609.92
2019-04-10T08:26:32.514Z,101606.61
2019-04-10T08:28:59.851Z,101604.05
2019-04-10T08:31:26.969Z,101598.48
2019-04-10T08:33:55.002Z,101601.17
2019-04-10T08:36:23.444Z,101603.25
2019-04-10T08:38:50.884Z,101606.91
2019-04-10T08:41:17.771Z,101609.72
2019-04-10T08:43:44.480Z,101605.20
2019-04-10T08:46:11.440Z,101611.64
2019-04-10T08:48:39.181Z,101608.78
2019-04-10T08:51:06.612Z,101608.41
2019-04-10T08:53:34.328Z,101613.16
2019-04-10T08:56:02.271Z,101614.78
2019-04-10T08:58:29.190Z,101608.94
2019-04-10T09:00:56.579Z,101606.48
2019-04-10T09:03:24.546Z,101615.52
2019-04-10T09:05:53.081Z,101609.35
2019-04-10T09:08:21.074Z,101607.16
2019-04-10T09:10:48.063Z,101603.64
2019-04-10T09:13:15.316Z,101605.48
2019-04-10T09:15:42.465Z,101605.95
2019-04-10T09:18:11.261Z,101597.62
2019-04-10T09:20:38.515Z,101597.40
2019-04-10T09:25:35.368Z,101603.19
2019-04-10T09:28:02.326Z,101598.70
2019-04-10T09:30:29.212Z,101599.26
2019-04-10T09:32:57.003Z,101595.52
2019-04-10T09:35:24.639Z,101596.48
2019-04-10T09:37:52.453Z,101599.44
2019-04-10T09:40:20.438Z,101599.70
2019-04-10T09:42:48.012Z,101601.86
2019-04-10T09:45:15.628Z,101592.55
2019-04-10T09:47:43.769Z,101591.88
2019-04-10T09:50:11.283Z,101589.51
2019-04-10T09:52:38.327Z,101587.86
2019-04-10T09:55:05.279Z,101590.75
2019-04-10T09:57:32.240Z,101591.33
2019-04-10T09:59:59.397Z,101592.95
2019-04-10T10:02:27.476Z,101585.28
2019-04-10T10:04:55.650Z,101576.98
2019-04-10T10:07:22.551Z,101583.83
2019-04-10T10:09:49.366Z,101583.42
2019-04-10T10:12:16.145Z,101584.12
2019-04-10T10:14:44.206Z,101585.81
2019-04-10T10:17:11.356Z,101593.24
2019-04-10T10:19:39.284Z,101593.30
2019-04-10T10:22:07.601Z,101597.78
2019-04-10T10:24:35.035Z,101591.36
2019-04-10T10:27:02.477Z,101591.80
2019-04-10T10:29:30.117Z,101586.67
2019-04-10T10:31:57.141Z,101597.27
2019-04-10T10:34:23.955Z,101595.44
2019-04-10T10:36:53.144Z,101602.98
2019-04-10T10:39:20.962Z,101598.17
2019-04-10T10:41:49.022Z,101596.09
2019-04-10T10:44:17.241Z,101600.28
2019-04-10T10:46:44.249Z,101595.02
2019-04-10T10:49:11.200Z,101596.55
2019-04-10T10:51:39.142Z,101592.35
2019-04-10T10:54:06.147Z,101589.20
2019-04-10T10:56:34.176Z,101592.59
2019-04-10T10:59:01.127Z,101582.05
2019-04-10T11:01:28.000Z,101591.59
2019-04-10T11:03:56.268Z,101589.70
2019-04-10T11:06:24.673Z,101589.26
2019-04-10T11:08:51.803Z,101589.48
2019-04-10T11:11:19.949Z,101589.16
2019-04-10T11:13:47.209Z,101590.64
2019-04-10T11:16:15.099Z,101585.86
2019-04-10T11:18:42.529Z,101584.83
2019-04-10T11:21:11.690Z,101592.79
2019-04-10T11:23:38.060Z,101585.51
2019-04-10T11:26:05.146Z,101589.25
2019-04-10T11:28:33.679Z,101583.66
2019-04-10T11:31:01.697Z,101585.94
2019-04-10T11:33:30.630Z,101585.17
2019-04-10T11:35:57.599Z,101580.92
2019-04-10T11:38:25.864Z,101582.14
2019-04-10T11:40:56.288Z,101581.16
2019-04-10T11:43:24.862Z,101583.72
2019-04-10T11:45:53.800Z,101585.81
2019-04-10T11:48:20.176Z,101587.43
2019-04-10T11:50:48.432Z,101579.77
2019-04-10T11:53:17.734Z,101581.75
2019-04-10T11:55:50.206Z,101583.83
2019-04-10T11:58:15.583Z,101577.59
2019-04-10T12:00:50.755Z,101584.30
2019-04-10T12:03:12.544Z,101584.05
2019-04-10T12:05:41.227Z,101585.52
2019-04-10T12:08:32.327Z,101582.92
2019-04-10T12:13:08.105Z,101581.04
2019-04-10T12:15:35.504Z,101574.77
2019-04-10T12:18:04.426Z,101585.34
2019-04-10T12:20:31.629Z,101580.48
2019-04-10T12:22:58.744Z,101567.38
2019-04-10T12:25:27.035Z,101568.66
2019-04-10T12:27:54.187Z,101566.24
2019-04-10T12:30:21.738Z,101570.16
2019-04-10T12:32:49.262Z,101567.73
2019-04-10T12:35:17.202Z,101571.27
2019-04-10T12:37:43.994Z,101569.95
2019-04-10T12:40:12.283Z,101566.02
2019-04-10T12:42:39.341Z,101558.47
2019-04-10T12:45:08.169Z,101550.34
2019-04-10T12:47:35.175Z,101557.91
2019-04-10T12:50:02.018Z,101556.48
2019-04-10T12:52:30.286Z,101559.98
2019-04-10T12:54:57.569Z,101565.33
2019-04-10T12:57:24.604Z,101559.08
2019-04-10T12:59:51.951Z,101566.33
2019-04-10T13:02:20.492Z,101564.84
2019-04-10T13:04:48.946Z,101563.20
2019-04-10T13:07:16.039Z,101558.61
2019-04-10T13:09:44.105Z,101565.16
2019-04-10T13:12:11.221Z,101567.59
2019-04-10T13:14:39.741Z,101564.72
2019-04-10T13:17:06.858Z,101562.13
2019-04-10T13:19:34.366Z,101569.23
2019-04-10T13:22:02.474Z,101566.14
2019-04-10T13:24:29.917Z,101566.63
2019-04-10T13:26:57.096Z,101568.65
2019-04-10T13:29:24.479Z,101558.96
2019-04-10T13:31:51.669Z,101559.79
2019-04-10T13:34:19.647Z,101558.45
2019-04-10T13:36:46.706Z,101556.10
2019-04-10T13:39:16.348Z,101561.86
2019-04-10T13:41:43.009Z,101555.69
2019-04-10T13:44:10.759Z,101563.80
2019-04-10T13:46:38.256Z,101550.30
2019-04-10T13:49:06.045Z,101554.70
2019-04-10T13:51:33.285Z,101561.19
2019-04-10T13:54:00.427Z,101567.34
2019-04-10T13:56:27.447Z,101556.70
2019-04-10T13:58:54.414Z,101557.66
2019-04-10T14:01:28.840Z,101562.69
2019-04-10T14:03:55.671Z,101563.47
2019-04-10T14:06:22.530Z,101569.27
2019-04-10T14:09:08.182Z,101569.84
2019-04-10T14:11:17.978Z,101569.17
2019-04-10T14:13:44.796Z,101566.67
2019-04-10T14:16:12.589Z,101577.42
2019-04-10T14:18:39.791Z,101584.02
2019-04-10T14:21:11.048Z,101576.12
2019-04-10T14:23:35.938Z,101580.96
2019-04-10T14:26:20.724Z,101578.49
2019-04-10T14:28:49.160Z,101576.95
2019-04-10T14:31:18.404Z,101583.28
2019-04-10T14:33:45.248Z,101577.19
2019-04-10T14:36:12.513Z,101574.36
2019-04-10T14:38:39.508Z,101575.52
2019-04-10T14:41:06.590Z,101581.73
2019-04-10T14:43:33.593Z,101580.80
2019-04-10T14:46:00.772Z,101578.74
2019-04-10T14:48:27.887Z,101582.55
2019-04-10T14:50:54.876Z,101579.05
2019-04-10T14:53:22.660Z,101575.49
2019-04-10T14:55:50.117Z,101575.80
2019-04-10T14:58:22.783Z,101576.47
2019-04-10T15:00:49.390Z,101573.73
2019-04-10T15:03:18.160Z,101574.56
2019-04-10T15:05:50.478Z,101571.66
2019-04-10T15:08:13.519Z,101569.40
2019-04-10T15:10:40.550Z,101581.63
2019-04-10T15:13:13.698Z,101580.98
2019-04-10T15:15:38.617Z,101576.85
2019-04-10T15:18:07.175Z,101569.63
2019-04-10T15:20:35.626Z,101574.20
2019-04-10T15:23:02.889Z,101575.47
2019-04-10T15:25:31.089Z,101572.02
2019-04-10T15:27:58.230Z,101572.16
2019-04-10T15:30:25.149Z,101572.24
2019-04-10T15:32:51.927Z,101573.95
2019-04-10T15:35:20.047Z,101575.04
2019-04-10T15:37:47.316Z,101574.71
2019-04-10T15:40:20.857Z,101569.77
2019-04-10T15:42:44.019Z,101579.31
2019-04-10T15:45:11.165Z,101574.62
2019-04-10T15:47:48.792Z,101570.05
2019-04-10T15:50:08.260Z,101582.50
2019-04-10T15:52:35.604Z,101574.89
2019-04-10T15:55:03.665Z,101584.82
2019-04-10T15:57:42.607Z,101586.34
2019-04-10T16:00:00.577Z,101587.17
2019-04-10T16:02:27.995Z,101583.70
2019-04-10T16:04:55.254Z,101589.16
2019-04-10T16:07:22.718Z,101588.51
2019-04-10T16:09:53.680Z,101594.48
2019-04-10T16:12:22.735Z,101588.95
2019-04-10T16:14:50.634Z,101590.23
2019-04-10T16:17:34.951Z,101591.56
2019-04-10T16:20:21.654Z,101592.81
2019-04-10T16:22:53.637Z,101585.98
2019-04-10T16:25:22.635Z,101584.49
2019-04-10T16:27:50.022Z,101583.66
2019-04-10T16:30:19.298Z,101589.91
2019-04-10T16:32:46.779Z,101594.18
2019-04-10T16:35:13.900Z,101589.66
2019-04-10T16:37:41.862Z,101595.95
2019-04-10T16:40:11.774Z,101600.29
2019-04-10T16:42:41.370Z,101605.52
2019-04-10T16:45:10.205Z,101600.48
2019-04-10T16:47:38.527Z,101595.53
2019-04-10T16:50:05.865Z,101605.41
2019-04-10T16:52:33.333Z,101604.13
2019-04-10T16:55:00.490Z,101606.20
2019-04-10T16:57:27.372Z,101604.34
2019-04-10T16:59:55.861Z,101607.23
2019-04-10T17:02:22.757Z,101612.70
2019-04-10T17:04:50.355Z,101608.34
2019-04-10T17:07:17.214Z,101611.22
2019-04-10T17:09:45.400Z,101604.91
2019-04-10T17:12:13.590Z,101602.56
2019-04-10T17:14:41.953Z,101603.77
2019-04-10T17:17:08.865Z,101606.86
2019-04-10T17:19:46.366Z,101611.05
2019-04-10T17:22:04.817Z,101608.92
2019-04-10T17:24:32.038Z,101611.19
2019-04-10T17:26:59.398Z,101615.94
2019-04-10T17:29:27.238Z,101617.06
2019-04-10T17:31:54.948Z,101618.51
2019-04-10T17:34:22.905Z,101624.66
2019-04-10T17:36:49.875Z,101630.08
2019-04-10T17:39:17.960Z,101634.41
2019-04-10T17:41:45.915Z,101637.94
2019-04-10T17:44:13.773Z,101639.65
2019-04-10T17:46:41.620Z,101646.81
2019-04-10T17:49:10.332Z,101648.76
2019-04-10T17:51:38.494Z,101653.45
2019-04-10T17:54:06.353Z,101649.42
2019-04-10T17:56:33.049Z,101659.89
2019-04-10T17:59:00.273Z,101662.28
2019-04-10T18:01:27.498Z,101661.13
2019-04-10T18:03:58.338Z,101667.47
2019-04-10T18:06:24.101Z,101671.08
2019-04-10T18:08:51.500Z,101676.45
2019-04-10T18:11:18.753Z,101675.51
2019-04-10T18:13:46.779Z,101673.64
2019-04-10T18:16:14.726Z,101684.86
2019-04-10T18:18:42.143Z,101681.80
2019-04-10T18:21:09.362Z,101684.25
2019-04-10T18:23:36.379Z,101688.74
2019-04-10T18:26:04.472Z,101684.79
2019-04-10T18:28:33.433Z,101695.91
2019-04-10T18:31:00.762Z,101693.47
2019-04-10T18:33:28.650Z,101697.54
2019-04-10T18:35:55.565Z,101701.33
2019-04-10T18:38:23.625Z,101696.44
2019-04-10T18:40:55.996Z,101707.47
2019-04-10T18:43:20.266Z,101703.80
2019-04-10T18:45:59.179Z,101706.77
2019-04-10T18:48:16.652Z,101715.44
2019-04-10T18:50:43.804Z,101715.27
2019-04-10T18:53:10.973Z,101713.92
2019-04-10T19:01:39.080Z,101714.50
2019-04-10T19:04:18.168Z,101717.05
2019-04-10T19:06:47.183Z,101716.95
2019-04-10T19:09:22.906Z,101719.66
2019-04-10T19:11:44.651Z,101730.44
2019-04-10T19:14:12.155Z,101731.70
2019-04-10T19:16:39.575Z,101733.08
2019-04-10T19:19:08.008Z,101739.95
2019-04-10T19:21:35.700Z,101735.45
2019-04-10T19:24:03.629Z,101742.14
2019-04-10T19:26:31.511Z,101745.16
2019-04-10T19:28:59.176Z,101752.45
2019-04-10T19:31:27.781Z,101750.58
2019-04-10T19:33:54.849Z,101750.80
2019-04-10T19:36:21.897Z,101752.86
2019-04-10T19:38:49.633Z,101750.97
2019-04-10T19:41:25.048Z,101752.03
2019-04-10T19:43:46.181Z,101760.20
2019-04-10T19:46:13.469Z,101757.71
2019-04-10T19:48:41.530Z,101757.47
2019-04-10T19:51:09.787Z,101752.88
2019-04-10T19:53:37.465Z,101758.67
2019-04-10T19:56:04.442Z,101753.11
2019-04-10T19:58:32.261Z,101762.19
2019-04-10T20:01:01.000Z,101758.89
2019-04-10T20:03:29.920Z,101766.20
2019-04-10T20:05:57.592Z,101757.69
2019-04-10T20:08:25.805Z,101762.79
2019-04-10T20:10:54.774Z,101762.39
2019-04-10T20:13:22.741Z,101761.23
2019-04-10T20:15:50.879Z,101764.19
2019-04-10T20:18:18.867Z,101769.95
2019-04-10T20:20:46.085Z,101772.78
2019-04-10T20:23:14.219Z,101775.14
2019-04-10T20:25:41.499Z,101776.59
2019-04-10T20:28:08.890Z,101786.19
2019-04-10T20:30:37.024Z,101783.45
2019-04-10T20:33:04.217Z,101785.20
2019-04-10T20:35:32.023Z,101786.73
2019-04-10T20:37:59.097Z,101789.78
2019-04-10T20:40:26.148Z,101797.89
2019-04-10T20:42:52.805Z,101796.59
2019-04-10T20:45:21.047Z,101791.44
2019-04-10T20:47:49.798Z,101797.83
2019-04-10T20:50:17.531Z,101792.75
2019-04-10T20:52:51.540Z,101802.20
2019-04-10T20:55:22.268Z,101805.98
2019-04-10T20:57:49.979Z,101806.94
2019-04-10T21:00:20.278Z,101809.30
2019-04-10T21:02:47.378Z,101806.59
2019-04-10T21:05:15.352Z,101805.66
2019-04-10T21:07:43.982Z,101808.98
2019-04-10T21:10:11.155Z,101808.00
2019-04-10T21:12:38.027Z,101812.30
2019-04-10T21:15:05.582Z,101811.81
2019-04-10T21:17:32.612Z,101819.41
2019-04-10T21:20:00.063Z,101816.56
2019-04-10T21:22:28.685Z,101817.06
2019-04-10T21:24:56.215Z,101817.66
2019-04-10T21:27:22.988Z,101819.83
2019-04-10T21:29:54.835Z,101826.16
2019-04-10T21:32:43.039Z,101832.78
2019-04-10T21:35:12.097Z,101834.58
2019-04-10T21:37:40.288Z,101843.63
2019-04-10T21:40:08.138Z,101837.81
2019-04-10T21:42:35.185Z,101841.20
2019-04-10T21:45:02.368Z,101842.78
2019-04-10T21:47:30.022Z,101849.22
2019-04-10T21:49:56.958Z,101852.10
2019-04-10T21:52:25.016Z,101856.50
2019-04-10T21:54:55.991Z,101851.64
2019-04-10T21:57:20.856Z,101859.16
2019-04-10T21:59:47.665Z,101861.64
2019-04-10T22:02:15.339Z,101856.65
2019-04-10T22:04:43.392Z,101857.60
2019-04-10T22:07:12.190Z,101860.39
2019-04-10T22:09:41.084Z,101856.78
2019-04-10T22:12:23.216Z,101856.22
2019-04-10T22:14:39.685Z,101858.55
2019-04-10T22:17:08.744Z,101862.59
2019-04-10T22:19:37.996Z,101856.56
2019-04-10T22:22:06.296Z,101858.13
2019-04-10T22:24:34.083Z,101856.98
2019-04-10T22:27:01.283Z,101855.29
2019-04-10T22:29:28.228Z,101857.33
2019-04-10T22:31:55.300Z,101849.38
2019-04-10T22:34:22.421Z,101856.09
2019-04-10T22:36:49.602Z,101854.80
2019-04-10T22:39:17.267Z,101860.05
2019-04-10T22:41:44.422Z,101860.83
2019-04-10T22:44:11.843Z,101863.55
2019-04-10T22:46:38.615Z,101865.40
2019-04-10T22:49:06.271Z,101863.22
2019-04-10T22:51:33.296Z,101864.70
2019-04-10T22:54:00.380Z,101866.27
2019-04-10T22:56:27.343Z,101868.75
2019-04-10T22:58:54.329Z,101866.41
2019-04-10T23:01:22.956Z,101866.22
2019-04-10T23:03:50.091Z,101868.08
2019-04-10T23:06:17.474Z,101867.80
2019-04-10T23:08:44.717Z,101864.23
2019-04-10T23:11:13.151Z,101873.33
2019-04-10T23:13:40.451Z,101870.05
2019-04-10T23:16:08.420Z,101870.80
2019-04-10T23:18:35.419Z,101870.94
2019-04-10T23:21:03.989Z,101879.09
2019-04-10T23:23:31.107Z,101875.92
2019-04-10T23:25:58.575Z,101874.50
2019-04-10T23:28:25.441Z,101871.55
2019-04-10T23:30:52.962Z,101875.13
2019-04-10T23:33:20.232Z,101879.88
2019-04-10T23:35:47.079Z,101875.25
2019-04-10T23:38:15.209Z,101877.30
2019-04-10T23:40:43.209Z,101880.01
2019-04-10T23:43:14.101Z,101873.58
2019-04-10T23:45:39.816Z,101871.94
2019-04-10T23:48:06.716Z,101872.28
2019-04-10T23:50:34.392Z,101869.62
2019-04-10T23:53:02.359Z,101869.46
2019-04-10T23:55:30.212Z,101875.89
2019-04-10T23:57:57.911Z,101879.04
